Nearby METAR Reports

 

KVCT - Victoria, Texas, USA
Distance from station: E 12mi, 20km
Updated: 08/25/2019 8:51am
Overcast
Overcast
 Wind from S
Wind: S 6 mph , 9 km/h
Temperature: 82°F , 28°C
Heat Index: 91°F , 33°C
Dew Point: 79°F , 26°C
Humidity: 89%
Barometer: 29.89 inHg , 1012.2 hPa
Clouds: Overcast
Visibility: 8 miles , 13 km
Cloud details: Few Clouds 1500 ft
Overcast 2300 ft
2019/08/25 13:51 KVCT 251351Z 19005KT 8SM FEW015 OVC023 28/26 A2989 RMK AO2 SLP118 T02830261
KPKV - Port Lavaca, Texas, USA
Distance from station: ESE 31mi, 50km
Updated: 08/25/2019 8:55am
Clear
Clear
 Wind from SSW
Wind: SSW 5 mph , 7 km/h
Temperature: 86°F , 30°C
Heat Index: 105°F , 41°C
Dew Point: 82°F , 28°C
Humidity: 89%
Barometer: 29.88 inHg , 1011.9 hPa
Clouds: Clear
Visibility: 7 miles , 11 km
2019/08/25 13:55 KPKV 251355Z AUTO 20004KT 7SM CLR 30/28 A2988 RMK AO2 T02950277
 
KT20 - Gonzales Muni, Texas, USA
Distance from station: NNW 50mi, 81km
Updated: 08/25/2019 8:55am
Overcast
Overcast
 Wind from S
Wind: S 3 mph , 6 km/h
Temperature: 81°F , 27°C
Heat Index: 91°F , 33°C
Dew Point: 81°F , 27°C
Humidity: 100%
Barometer: 29.90 inHg , 1012.5 hPa
Clouds: Overcast
Visibility: 7 miles , 11 km
Cloud details: Overcast 600 ft
2019/08/25 13:55 KT20 251355Z AUTO 17003KT 7SM OVC006 27/27 A2990 RMK AO2 T02740269
KBEA - Beeville Muni, Texas, USA
Distance from station: SW 51mi, 83km
Updated: 07/03/2019 9:00pm
NOT Current
Heavy thunderstorm, Rain, Overcast
Heavy thunderstorm, Rain, Overcast
 Wind from S
Wind: S 20 mph , 31 km/h
Temperature: 73°F , 23°C
Dew Point: 68°F , 20°C
Humidity: 83%
Barometer: 29.91 inHg , 1012.9 hPa
Summary: Heavy thunderstorm, Rain
Clouds: Overcast
Visibility: 2 1/2 miles , 4 km
Cloud details: Partly cloudy 1100 ft
Mostly cloudy 1800 ft
Overcast 3600 ft
2019/07/04 02:00 KBEA 040200Z AUTO 19017KT 2 1/2SM +TSRA SCT011 BKN018 OVC036 23/20 A2991 RMK AO2 LTG DSNT ALQS P0001 T02330200
 
KRKP - Rockport, Texas, USA
Distance from station: S 53mi, 86km
Updated: 08/25/2019 8:53am
Haze, Few clouds
Haze, Few clouds
 Wind from S
Wind: S 8 mph , 13 km/h
Temperature: 84°F , 29°C
Heat Index: 96°F , 36°C
Dew Point: 79°F , 26°C
Humidity: 84%
Barometer: 29.87 inHg , 1011.5 hPa
Summary: Haze
Clouds: Few Clouds
Visibility: 5 miles , 8 km
Cloud details: Few Clouds 1200 ft
2019/08/25 13:53 KRKP 251353Z AUTO 18007KT 5SM HZ FEW012 29/26 A2987 RMK AO2 SLP118 T02940261
KPSX - Palacios, Texas, USA
Distance from station: E 55mi, 88km
Updated: 08/25/2019 9:02am
Partly cloudy
Partly cloudy
 Wind from SW
Wind: SW 9 mph , 15 km/h
Temperature: 88°F , 31°C
Heat Index: 100°F , 38°C
Dew Point: 77°F , 25°C
Humidity: 70%
Barometer: 29.88 inHg , 1011.9 hPa
Clouds: Partly cloudy
Visibility: 8 miles , 13 km
Cloud details: Few Clouds 1600 ft
Partly cloudy 2900 ft
Partly cloudy 3400 ft
2019/08/25 14:02 KPSX 251402Z AUTO 22008KT 8SM FEW016 SCT029 SCT034 31/25 A2988 RMK AO2 T03110250
 
KTFP - Ingleside/Tp Mcc, Texas, USA
Distance from station: S 65mi, 104km
Updated: 08/25/2019 8:55am
Mostly cloudy
Mostly cloudy
 Wind from SSW
Wind: SSW 10 mph , 17 km/h
Temperature: 86°F , 30°C
Heat Index: 102°F , 39°C
Dew Point: 81°F , 27°C
Humidity: 84%
Barometer: 29.88 inHg , 1011.9 hPa
Clouds: Mostly cloudy
Visibility: 10 miles , 16 km
Cloud details: Partly cloudy 1500 ft
Mostly cloudy 2400 ft
Mostly cloudy 3000 ft
2019/08/25 13:55 KTFP 251355Z AUTO 20009KT 10SM SCT015 BKN024 BKN030 30/27 A2988 RMK AO2 LTG DSNT SE T03020270 PNO
K66R - Columbus, Texas, USA
Distance from station: NE 66mi, 106km
Updated: 08/25/2019 8:55am
Overcast
Overcast
 Wind from SSE
Wind: SSE 3 mph , 6 km/h
Temperature: 82°F , 28°C
Heat Index: 91°F , 33°C
Dew Point: 79°F , 26°C
Humidity: 89%
Barometer: 29.90 inHg , 1012.5 hPa
Clouds: Overcast
Visibility: 10 miles , 16 km
Cloud details: Overcast 500 ft
2019/08/25 13:55 K66R 251355Z AUTO 16003KT 10SM OVC005 28/26 A2990 RMK AO2 T02830263
 
KARM - Wharton, Texas, USA
Distance from station: ENE 66mi, 106km
Updated: 08/25/2019 8:55am
Partly cloudy
Partly cloudy
 Wind from calm
Wind: Calm
Temperature: 81°F , 27°C
Heat Index: 89°F , 32°C
Dew Point: 79°F , 26°C
Humidity: 94%
Barometer: 29.90 inHg , 1012.5 hPa
Clouds: Partly cloudy
Visibility: 10 miles , 16 km
Cloud details: Partly cloudy 1600 ft
2019/08/25 13:55 KARM 251355Z AUTO 00000KT 10SM SCT016 27/26 A2990 RMK AO2 T02670258
KRAS - Port Aransas, Texas, USA
Distance from station: S 71mi, 115km
Updated: 08/25/2019 8:55am
Mostly cloudy
Mostly cloudy
 Wind from S
Wind: S 10 mph , 17 km/h
Temperature: 86°F , 30°C
Heat Index: 102°F , 39°C
Dew Point: 81°F , 27°C
Humidity: 84%
Barometer: 29.89 inHg , 1012.2 hPa
Clouds: Mostly cloudy
Visibility: 10 miles , 16 km
Cloud details: Mostly cloudy 1000 ft
Mostly cloudy 1700 ft
2019/08/25 13:55 KRAS 251355Z AUTO 17009KT 10SM BKN010 BKN017 30/27 A2989 RMK AO2 LTG DSNT E T02960268
 
KELA - Eagle Lake, Texas, USA
Distance from station: NE 72mi, 115km
Updated: 08/25/2019 8:55am
Partly cloudy
Partly cloudy
 Wind from calm
Wind: Calm
Temperature: 84°F , 29°C
Heat Index: 98°F , 37°C
Dew Point: 81°F , 27°C
Humidity: 89%
Barometer: 29.89 inHg , 1012.2 hPa
Clouds: Partly cloudy
Visibility: 10 miles , 16 km
Cloud details: Partly cloudy 9000 ft
2019/08/25 13:55 KELA 251355Z AUTO 00000KT 10SM SCT090 29/27 A2989 RMK AO2 T02900271
K3T5 - La Grange, Texas, USA
Distance from station: N 73mi, 118km
Updated: 08/25/2019 8:55am
Mist, Overcast
Mist, Overcast
 Wind from SSW
Wind: SSW 5 mph , 7 km/h
Temperature: 82°F , 28°C
Heat Index: 95°F , 35°C
Dew Point: 82°F , 28°C
Humidity: 100%
Barometer: 29.89 inHg , 1012.2 hPa
Summary: Mist
Clouds: Overcast
Visibility: 5 miles , 8 km
Cloud details: Overcast 500 ft
2019/08/25 13:55 K3T5 251355Z AUTO 20004KT 5SM BR OVC005 28/28 A2989 RMK AO2 T02750275
 
KBYY - Bay City, Texas, USA
Distance from station: E 77mi, 124km
Updated: 08/25/2019 8:55am
Partly cloudy
Partly cloudy
 Wind from calm
Wind: Calm
Temperature: 84°F , 29°C
Heat Index: 98°F , 37°C
Dew Point: 81°F , 27°C
Humidity: 89%
Barometer: 29.89 inHg , 1012.2 hPa
Clouds: Partly cloudy
Visibility: 10 miles , 16 km
Cloud details: Partly cloudy 10000 ft
2019/08/25 13:55 KBYY 251355Z AUTO 00000KT 10SM SCT100 29/27 A2989 RMK AO2 T02900276
KCRP - Corpus Christi, Texas, USA
Distance from station: SSW 78mi, 126km
Updated: 08/25/2019 8:51am
Mist, Overcast
Mist, Overcast
 Wind from S
Wind: S 3 mph , 6 km/h
Temperature: 84°F , 29°C
Heat Index: 98°F , 37°C
Dew Point: 81°F , 27°C
Humidity: 89%
Barometer: 29.88 inHg , 1011.9 hPa
Summary: Mist
Clouds: Overcast
Visibility: 6 miles , 10 km
Cloud details: Few Clouds 1800 ft
Partly cloudy 13000 ft
Overcast 25000 ft
2019/08/25 13:51 KCRP 251351Z 18003KT 6SM BR FEW018 SCT130 OVC250 29/27 A2988 RMK AO2 SLP117 T02890267
 
KNGP - C. Christi Nas, Texas, USA
Distance from station: S 81mi, 130km
Updated: 08/25/2019 8:56am
Few Clouds
Few Clouds
 Wind from S
Wind: S 8 mph , 13 km/h
Temperature: 86°F , 30°C
Heat Index: 105°F , 41°C
Dew Point: 82°F , 28°C
Humidity: 89%
Barometer: 29.87 inHg , 1011.5 hPa
Clouds: Few Clouds
Visibility: 9 miles , 14 km
Cloud details: Few Clouds 1200 ft
2019/08/25 13:56 KNGP 251356Z AUTO 18007KT 9SM FEW012 30/28 A2987 RMK AO2 SLP116 T03000278 $
KRBO - Robstown/Nueces, Texas, USA
Distance from station: SSW 81mi, 130km
Updated: 08/25/2019 8:55am
Partly cloudy
Partly cloudy
 Wind from calm
Wind: Calm
Temperature: 84°F , 29°C
Heat Index: 92°F , 33°C
Dew Point: 75°F , 24°C
Humidity: 74%
Barometer: 29.89 inHg , 1012.2 hPa
Clouds: Partly cloudy
Visibility: 10 miles , 16 km
Cloud details: Partly cloudy 700 ft
2019/08/25 13:55 KRBO 251355Z AUTO 00000KT 10SM SCT007 29/24 A2989 RMK AO2 T02850243
 
KBAZ - New Braunfels, Texas, USA
Distance from station: NW 81mi, 131km
Updated: 08/25/2019 9:09am
Mist, Overcast
Mist, Overcast
 Wind from S
Wind: S 6 mph , 9 km/h
Temperature: 81°F , 27°C
Heat Index: 89°F , 32°C
Dew Point: 79°F , 26°C
Humidity: 94%
Barometer: 29.90 inHg , 1012.5 hPa
Summary: Mist
Clouds: Overcast
Visibility: 2 miles , 3 km
Cloud details: Overcast 600 ft
2019/08/25 14:09 KBAZ 251409Z 18005KT 2SM BR OVC006 27/26 A2990 RMK AO2 CIG 005V010 T02720256
KRND - Randolph Afb, Texas, USA
Distance from station: NW 82mi, 132km
Updated: 08/25/2019 9:01am
Overcast
Overcast
 Wind from SSE
Wind: SSE 7 mph , 11 km/h
Temperature: 81°F , 27°C
Heat Index: 89°F , 32°C
Dew Point: 79°F , 26°C
Humidity: 94%
Barometer: 29.91 inHg , 1012.9 hPa
Clouds: Overcast
Visibility: 10 miles , 16 km
Cloud details: Overcast 600 ft
2019/08/25 14:01 KRND 251401Z AUTO 16006KT 10SM OVC006 27/26 A2991 RMK AO2 CIG 005 RWY15R CIG 005 RWY33R SLP120
 
KHYI - San Marcos, Texas, USA
Distance from station: NNW 84mi, 135km
Updated: 08/25/2019 9:05am
Mist, Overcast
Mist, Overcast
 Wind from calm
Wind: Calm
Temperature: 79°F , 26°C
Dew Point: 77°F , 25°C
Humidity: 94%
Barometer: 29.92 inHg , 1013.2 hPa
Summary: Mist
Clouds: Overcast
Visibility: 1 1/4 miles , 2 km
Cloud details: Overcast 300 ft
2019/08/25 14:05 KHYI 251405Z 00000KT 1 1/4SM BR OVC003 26/25 A2992 RMK AO2
KPEZ - Pleasanton Muni, Texas, USA
Distance from station: W 84mi, 135km
Updated: 08/25/2019 8:55am
Mostly cloudy
Mostly cloudy
 Wind from SE
Wind: SE 5 mph , 7 km/h
Temperature: 81°F , 27°C
Heat Index: 88°F , 31°C
Dew Point: 77°F , 25°C
Humidity: 89%
Barometer: 29.89 inHg , 1012.2 hPa
Clouds: Mostly cloudy
Visibility: 7 miles , 11 km
Cloud details: Mostly cloudy 500 ft
2019/08/25 13:55 KPEZ 251355Z AUTO 13004KT 7SM BKN005 27/25 A2989 RMK AO2 T02670247